createdAt,value
2017-11-16T00:01:57.393Z,67.43
2017-11-16T00:04:23.674Z,67.66
2017-11-16T00:06:50.699Z,67.09
2017-11-16T00:09:16.980Z,67.37
2017-11-16T00:11:43.337Z,66.82
2017-11-16T00:14:09.641Z,66.79
2017-11-16T00:16:35.924Z,67.07
2017-11-16T00:19:02.249Z,67.03
2017-11-16T00:21:28.612Z,67.10
2017-11-16T00:23:55.625Z,66.83
2017-11-16T00:26:21.895Z,66.95
2017-11-16T00:28:48.968Z,67.09
2017-11-16T00:31:15.242Z,67.00
2017-11-16T00:33:41.515Z,67.05
2017-11-16T00:36:07.814Z,67.18
2017-11-16T00:38:34.155Z,67.33
2017-11-16T00:41:01.192Z,67.76
2017-11-16T00:43:27.469Z,67.81
2017-11-16T00:45:53.767Z,67.91
2017-11-16T00:48:20.854Z,67.94
2017-11-16T00:50:47.181Z,68.10
2017-11-16T00:53:13.423Z,68.27
2017-11-16T00:55:39.680Z,67.78
2017-11-16T00:58:05.929Z,67.90
2017-11-16T01:00:32.966Z,67.65
2017-11-16T01:02:59.301Z,67.14
2017-11-16T01:05:25.601Z,66.54
2017-11-16T01:07:51.874Z,66.40
2017-11-16T01:10:18.320Z,66.37
2017-11-16T01:12:44.625Z,66.53
2017-11-16T01:15:11.660Z,67.02
2017-11-16T01:17:38.002Z,67.37
2017-11-16T01:20:04.300Z,67.07
2017-11-16T01:22:37.786Z,67.29
2017-11-16T01:25:04.054Z,67.60
2017-11-16T01:27:30.367Z,67.19
2017-11-16T01:29:56.625Z,67.58
2017-11-16T01:32:23.821Z,67.50
2017-11-16T01:34:50.182Z,67.64
2017-11-16T01:37:16.505Z,67.24
2017-11-16T01:39:42.785Z,67.20
2017-11-16T01:42:09.805Z,67.46
2017-11-16T01:44:36.071Z,66.98
2017-11-16T01:47:02.373Z,66.63
2017-11-16T01:49:28.676Z,66.89
2017-11-16T01:51:54.934Z,66.53
2017-11-16T01:54:21.414Z,66.57
2017-11-16T01:56:47.694Z,67.00
2017-11-16T01:59:14.014Z,67.21
2017-11-16T02:01:40.301Z,67.06
2017-11-16T02:04:06.606Z,67.19
2017-11-16T02:06:33.610Z,67.30
2017-11-16T02:08:59.875Z,67.32
2017-11-16T02:11:26.891Z,66.94
2017-11-16T02:13:53.220Z,66.39
2017-11-16T02:16:19.530Z,66.21
2017-11-16T02:18:45.794Z,67.06
2017-11-16T02:21:12.085Z,67.68
2017-11-16T02:23:38.394Z,67.49
2017-11-16T02:26:04.742Z,67.62
2017-11-16T02:28:31.011Z,67.44
2017-11-16T02:30:58.046Z,67.36
2017-11-16T02:33:24.364Z,67.89
2017-11-16T02:35:50.627Z,68.33
2017-11-16T02:38:17.676Z,68.72
2017-11-16T02:40:44.011Z,68.63
2017-11-16T02:43:10.361Z,69.25
2017-11-16T02:45:37.383Z,69.46
2017-11-16T02:48:03.668Z,69.56
2017-11-16T02:50:29.965Z,70.20
2017-11-16T02:52:57.068Z,70.64
2017-11-16T02:55:23.327Z,71.14
2017-11-16T02:57:49.562Z,71.63
2017-11-16T03:00:15.861Z,72.06
2017-11-16T03:02:42.129Z,72.59
2017-11-16T03:05:09.161Z,72.97
2017-11-16T03:07:35.381Z,73.39
2017-11-16T03:10:01.680Z,73.74
2017-11-16T03:12:28.018Z,74.25
2017-11-16T03:14:54.307Z,74.34
2017-11-16T03:17:21.399Z,74.67
2017-11-16T03:19:47.736Z,75.16
2017-11-16T03:22:14.075Z,75.14
2017-11-16T03:24:40.324Z,75.24
2017-11-16T03:27:06.635Z,75.16
2017-11-16T03:29:32.924Z,75.26
2017-11-16T03:32:00.020Z,75.25
2017-11-16T03:34:26.329Z,74.98
2017-11-16T03:36:52.620Z,74.74
2017-11-16T03:39:18.941Z,74.45
2017-11-16T03:41:45.219Z,73.94
2017-11-16T03:44:11.871Z,73.39
2017-11-16T03:46:38.128Z,73.08
2017-11-16T03:49:04.414Z,72.79
2017-11-16T03:51:30.741Z,72.46
2017-11-16T03:53:57.013Z,72.38
2017-11-16T03:56:23.371Z,72.46
2017-11-16T03:58:49.638Z,72.48
2017-11-16T04:01:16.736Z,72.42
2017-11-16T04:03:43.041Z,72.35
2017-11-16T04:06:10.116Z,72.15
2017-11-16T04:08:37.229Z,71.89
2017-11-16T04:11:03.552Z,72.01
2017-11-16T04:13:29.914Z,72.32
2017-11-16T04:15:56.155Z,72.58
2017-11-16T04:18:22.477Z,72.54
2017-11-16T04:20:48.789Z,72.82
2017-11-16T04:23:15.102Z,72.88
2017-11-16T04:25:41.428Z,72.69
2017-11-16T04:28:07.726Z,72.44
2017-11-16T04:30:34.110Z,72.90
2017-11-16T04:33:00.436Z,73.28
2017-11-16T04:35:27.578Z,73.55
2017-11-16T04:37:53.839Z,74.09
2017-11-16T04:40:20.241Z,74.09
2017-11-16T04:42:46.496Z,74.09
2017-11-16T04:45:12.848Z,74.32
2017-11-16T04:47:39.874Z,74.64
2017-11-16T04:50:06.275Z,74.91
2017-11-16T04:52:32.589Z,74.96
2017-11-16T04:54:58.928Z,75.20
2017-11-16T04:57:25.203Z,75.33
2017-11-16T04:59:51.548Z,75.69
2017-11-16T05:02:17.982Z,76.10
2017-11-16T05:04:44.329Z,76.50
2017-11-16T05:07:11.336Z,76.61
2017-11-16T05:09:37.654Z,76.64
2017-11-16T05:12:03.910Z,76.91
2017-11-16T05:14:30.189Z,76.76
2017-11-16T05:16:56.529Z,76.72
2017-11-16T05:19:22.854Z,76.39
2017-11-16T05:21:49.133Z,75.91
2017-11-16T05:24:16.379Z,75.41
2017-11-16T05:26:42.712Z,75.22
2017-11-16T05:29:09.036Z,74.96
2017-11-16T05:31:35.412Z,74.75
2017-11-16T05:34:02.510Z,74.64
2017-11-16T05:36:28.848Z,74.02
2017-11-16T05:38:55.184Z,73.42
2017-11-16T05:41:21.495Z,73.01
2017-11-16T05:43:47.817Z,72.48
2017-11-16T05:46:14.104Z,72.48
2017-11-16T05:48:40.423Z,72.12
2017-11-16T05:51:06.813Z,72.25
2017-11-16T05:53:33.179Z,72.22
2017-11-16T05:55:59.561Z,72.36
2017-11-16T05:58:25.873Z,71.68
2017-11-16T06:00:52.191Z,71.86
2017-11-16T06:03:19.263Z,71.99
2017-11-16T06:05:45.758Z,72.40
2017-11-16T06:08:12.058Z,72.36
2017-11-16T06:10:38.386Z,72.57
2017-11-16T06:13:04.705Z,73.41
2017-11-16T06:15:31.231Z,73.28
2017-11-16T06:18:04.545Z,73.20
2017-11-16T06:20:30.867Z,72.85
2017-11-16T06:22:57.207Z,72.57
2017-11-16T06:25:23.535Z,72.94
2017-11-16T06:27:49.818Z,73.24
2017-11-16T06:30:16.120Z,73.24
2017-11-16T06:32:42.512Z,73.46
2017-11-16T06:35:08.790Z,73.93
2017-11-16T06:37:35.210Z,73.70
2017-11-16T06:40:01.597Z,73.33
2017-11-16T06:42:28.609Z,73.54
2017-11-16T06:44:54.946Z,73.26
2017-11-16T06:47:21.264Z,73.03
2017-11-16T06:49:47.611Z,73.10
2017-11-16T06:52:13.974Z,72.52
2017-11-16T06:54:40.284Z,72.22
2017-11-16T06:57:06.683Z,72.17
2017-11-16T06:59:32.997Z,71.39
2017-11-16T07:01:59.322Z,70.81
2017-11-16T07:04:25.653Z,71.07
2017-11-16T07:06:52.056Z,70.69
2017-11-16T07:09:18.423Z,70.17
2017-11-16T07:11:44.779Z,69.70
2017-11-16T07:14:11.114Z,69.23
2017-11-16T07:16:37.416Z,69.31
2017-11-16T07:19:03.689Z,68.96
2017-11-16T07:21:30.009Z,68.60
2017-11-16T07:23:56.341Z,67.81
2017-11-16T07:26:22.638Z,68.05
2017-11-16T07:28:48.989Z,66.91
2017-11-16T07:31:15.309Z,66.50
2017-11-16T07:33:41.634Z,66.40
2017-11-16T07:36:07.894Z,66.45
2017-11-16T07:38:34.292Z,66.09
2017-11-16T07:41:00.670Z,65.82
2017-11-16T07:43:27.828Z,64.94
2017-11-16T07:45:54.935Z,64.39
2017-11-16T07:48:21.360Z,64.35
2017-11-16T07:50:47.721Z,65.21
2017-11-16T07:53:14.088Z,65.28
2017-11-16T07:55:41.206Z,65.50
2017-11-16T07:58:07.528Z,65.62
2017-11-16T08:00:33.860Z,65.59
2017-11-16T08:03:00.205Z,65.75
2017-11-16T08:05:26.543Z,65.72
2017-11-16T08:07:52.867Z,65.20
2017-11-16T08:10:19.212Z,64.88
2017-11-16T08:12:46.268Z,64.56
2017-11-16T08:15:13.339Z,64.28
2017-11-16T08:17:39.754Z,64.57
2017-11-16T08:20:06.088Z,64.53
2017-11-16T08:22:33.172Z,63.82
2017-11-16T08:24:59.471Z,63.25
2017-11-16T08:27:26.556Z,63.03
2017-11-16T08:29:52.885Z,62.88
2017-11-16T08:32:19.179Z,61.82
2017-11-16T08:34:46.270Z,61.49
2017-11-16T08:37:12.581Z,60.99
2017-11-16T08:39:38.908Z,60.99
2017-11-16T08:42:05.221Z,60.38
2017-11-16T08:44:32.268Z,59.33
2017-11-16T08:46:59.289Z,59.46
2017-11-16T08:49:25.611Z,58.86
2017-11-16T08:51:51.969Z,58.42
2017-11-16T08:54:19.020Z,57.87
2017-11-16T08:56:45.335Z,57.03
2017-11-16T08:59:11.647Z,56.71
2017-11-16T09:01:38.078Z,56.19
2017-11-16T09:04:04.430Z,55.66
2017-11-16T09:06:30.786Z,56.32
2017-11-16T09:08:57.851Z,56.21
2017-11-16T09:11:24.188Z,55.83
2017-11-16T09:13:50.495Z,55.97
2017-11-16T09:16:17.649Z,56.61
2017-11-16T09:18:44.713Z,57.11
2017-11-16T09:21:11.110Z,57.63
2017-11-16T09:23:45.114Z,57.43
2017-11-16T09:26:11.444Z,56.64
2017-11-16T09:28:37.802Z,56.70
2017-11-16T09:31:04.147Z,56.60
2017-11-16T09:33:30.530Z,56.24
2017-11-16T09:35:56.900Z,56.46
2017-11-16T09:38:23.933Z,57.01
2017-11-16T09:40:51.005Z,57.88
2017-11-16T09:43:17.294Z,57.48
2017-11-16T09:45:43.588Z,57.60
2017-11-16T09:48:09.889Z,56.67
2017-11-16T09:50:36.972Z,56.18
2017-11-16T09:53:03.336Z,55.29
2017-11-16T09:55:29.679Z,54.84
2017-11-16T09:57:56.015Z,54.26
2017-11-16T10:00:22.337Z,54.32
2017-11-16T10:02:48.627Z,54.75
2017-11-16T10:05:14.891Z,54.49
2017-11-16T10:07:42.050Z,54.32
2017-11-16T10:10:08.397Z,53.10
2017-11-16T10:12:35.432Z,53.49
2017-11-16T10:15:01.772Z,53.40
2017-11-16T10:17:28.870Z,52.11
2017-11-16T10:19:55.233Z,51.53
2017-11-16T10:22:21.524Z,50.82
2017-11-16T10:24:47.790Z,50.28
2017-11-16T10:27:14.078Z,50.15
2017-11-16T10:29:40.474Z,49.47
2017-11-16T10:32:07.539Z,48.75
2017-11-16T10:34:34.576Z,48.04
2017-11-16T10:37:01.639Z,46.93
2017-11-16T10:39:27.939Z,47.44
2017-11-16T10:41:54.258Z,46.22
2017-11-16T10:44:20.582Z,47.22
2017-11-16T10:46:46.917Z,46.26
2017-11-16T10:49:13.262Z,45.13
2017-11-16T10:51:40.287Z,44.08
2017-11-16T10:54:06.561Z,43.49
2017-11-16T10:56:33.609Z,42.88
2017-11-16T10:59:00.773Z,41.63
2017-11-16T11:01:27.072Z,42.23
2017-11-16T11:03:53.368Z,42.89
2017-11-16T11:06:19.662Z,43.03
2017-11-16T11:08:45.950Z,44.16
2017-11-16T11:11:12.213Z,43.90
2017-11-16T11:13:38.582Z,42.07
2017-11-16T11:16:04.899Z,40.45
2017-11-16T11:18:31.230Z,40.03
2017-11-16T11:20:57.530Z,39.33
2017-11-16T11:23:24.914Z,37.39
2017-11-16T11:25:51.193Z,36.84
2017-11-16T11:28:17.534Z,36.94
2017-11-16T11:30:43.852Z,34.69
2017-11-16T11:33:10.139Z,32.68
2017-11-16T11:35:36.429Z,30.78
2017-11-16T11:38:03.481Z,29.88
2017-11-16T11:40:30.589Z,28.82
2017-11-16T11:42:56.887Z,28.72
2017-11-16T11:45:23.189Z,29.35
2017-11-16T11:47:50.224Z,29.55
2017-11-16T11:50:16.523Z,28.41
2017-11-16T11:52:42.803Z,27.06
2017-11-16T11:55:09.827Z,27.66
2017-11-16T11:57:36.131Z,29.30
2017-11-16T12:00:02.404Z,29.84
2017-11-16T12:02:29.452Z,31.07
2017-11-16T12:04:56.568Z,31.29
2017-11-16T12:07:22.937Z,31.02
2017-11-16T12:09:49.960Z,30.13
2017-11-16T12:12:16.263Z,29.51
2017-11-16T12:14:42.532Z,28.55
2017-11-16T12:17:08.849Z,25.88
2017-11-16T12:19:35.229Z,24.87
2017-11-16T12:22:01.560Z,25.30
2017-11-16T12:24:27.894Z,26.50
2017-11-16T12:26:54.185Z,26.67
2017-11-16T12:29:20.560Z,29.08
2017-11-16T12:31:46.856Z,31.23
2017-11-16T12:34:13.895Z,30.97
2017-11-16T12:36:40.230Z,31.21
2017-11-16T12:39:06.625Z,30.20
2017-11-16T12:41:32.881Z,29.10
2017-11-16T12:43:59.211Z,29.48
2017-11-16T12:46:25.593Z,28.58
2017-11-16T12:48:51.987Z,28.68
2017-11-16T12:51:18.315Z,28.71
2017-11-16T12:53:44.653Z,28.39
2017-11-16T12:56:10.999Z,28.50
2017-11-16T12:58:38.111Z,28.45
2017-11-16T13:01:04.445Z,28.15
2017-11-16T13:03:30.706Z,28.10
2017-11-16T13:05:57.860Z,29.19
2017-11-16T13:08:24.158Z,29.88
2017-11-16T13:10:50.539Z,30.49
2017-11-16T13:13:16.832Z,31.78
2017-11-16T13:15:43.170Z,32.96
2017-11-16T13:18:09.486Z,33.69
2017-11-16T13:20:35.843Z,35.61
2017-11-16T13:23:02.154Z,37.20
2017-11-16T13:25:28.450Z,38.66
2017-11-16T13:27:54.785Z,38.27
2017-11-16T13:30:21.109Z,38.04
2017-11-16T13:32:47.421Z,38.12
2017-11-16T13:35:13.709Z,38.72
2017-11-16T13:37:40.028Z,39.07
2017-11-16T13:40:06.290Z,39.96
2017-11-16T13:42:33.289Z,40.79
2017-11-16T13:44:59.625Z,42.61
2017-11-16T13:47:26.013Z,43.27
2017-11-16T13:49:53.084Z,44.75
2017-11-16T13:52:19.331Z,45.98
2017-11-16T13:54:45.666Z,45.95
2017-11-16T13:57:12.086Z,46.14
2017-11-16T13:59:38.647Z,47.23
2017-11-16T14:02:05.066Z,47.14
2017-11-16T14:04:31.475Z,47.54
2017-11-16T14:06:57.866Z,48.69
2017-11-16T14:09:24.272Z,48.68
2017-11-16T14:11:50.595Z,49.28
2017-11-16T14:14:17.050Z,49.97
2017-11-16T14:16:43.395Z,50.79
2017-11-16T14:19:10.616Z,50.75
2017-11-16T14:21:37.223Z,51.19
2017-11-16T14:24:03.565Z,51.97
2017-11-16T14:26:29.928Z,52.31
2017-11-16T14:28:56.262Z,52.38
2017-11-16T14:31:22.725Z,52.41
2017-11-16T14:33:49.028Z,52.95
2017-11-16T14:36:15.350Z,53.12
2017-11-16T14:38:41.680Z,53.42
2017-11-16T14:41:08.981Z,53.88
2017-11-16T14:43:36.229Z,54.77
2017-11-16T14:46:03.353Z,55.19
2017-11-16T14:48:29.789Z,55.49
2017-11-16T14:50:56.066Z,56.37
2017-11-16T14:53:22.367Z,56.65
2017-11-16T14:55:49.508Z,56.67
2017-11-16T14:58:15.920Z,56.85
2017-11-16T15:00:42.309Z,56.45
2017-11-16T15:03:08.596Z,56.88
2017-11-16T15:05:34.886Z,57.05
2017-11-16T15:08:01.161Z,57.53
2017-11-16T15:10:27.470Z,57.63
2017-11-16T15:12:53.779Z,57.71
2017-11-16T15:15:20.124Z,58.19
2017-11-16T15:17:46.507Z,59.23
2017-11-16T15:20:13.610Z,59.32
2017-11-16T15:22:39.865Z,59.93
2017-11-16T15:25:06.206Z,60.10
2017-11-16T15:27:33.308Z,60.50
2017-11-16T15:29:59.614Z,60.47
2017-11-16T15:32:25.940Z,60.40
2017-11-16T15:34:52.307Z,60.68
2017-11-16T15:37:18.732Z,61.29
2017-11-16T15:39:46.240Z,61.46
2017-11-16T15:42:13.311Z,61.56
2017-11-16T15:44:39.605Z,61.88
2017-11-16T15:47:06.574Z,61.85
2017-11-16T15:49:33.686Z,61.74
2017-11-16T15:52:00.039Z,62.01
2017-11-16T15:54:26.363Z,62.03
2017-11-16T15:56:52.666Z,62.26
2017-11-16T15:59:19.003Z,62.31
2017-11-16T16:01:45.405Z,62.17
2017-11-16T16:04:11.886Z,62.23
2017-11-16T16:06:38.232Z,62.24
2017-11-16T16:09:04.515Z,62.28
2017-11-16T16:11:30.930Z,62.43
2017-11-16T16:13:57.223Z,62.64
2017-11-16T16:16:23.548Z,62.58
2017-11-16T16:18:51.349Z,62.30
2017-11-16T16:21:17.729Z,62.40
2017-11-16T16:23:44.056Z,61.81
2017-11-16T16:26:10.354Z,61.66
2017-11-16T16:28:36.654Z,61.92
2017-11-16T16:31:02.933Z,61.77
2017-11-16T16:33:29.287Z,62.18
2017-11-16T16:35:55.606Z,62.12
2017-11-16T16:38:21.924Z,61.95
2017-11-16T16:40:48.227Z,61.91
2017-11-16T16:43:14.528Z,61.69
2017-11-16T16:45:40.801Z,61.66
2017-11-16T16:48:07.136Z,62.28
2017-11-16T16:50:33.470Z,62.11
2017-11-16T16:52:59.791Z,62.58
2017-11-16T16:55:26.154Z,62.53
2017-11-16T16:57:52.577Z,62.16
2017-11-16T17:00:18.929Z,62.94
2017-11-16T17:02:45.247Z,62.94
2017-11-16T17:05:11.550Z,62.94
2017-11-16T17:07:37.920Z,63.57
2017-11-16T17:10:04.267Z,63.73
2017-11-16T17:12:30.633Z,63.59
2017-11-16T17:14:56.955Z,63.84
2017-11-16T17:17:24.003Z,63.56
2017-11-16T17:19:51.152Z,63.21
2017-11-16T17:22:18.156Z,63.77
2017-11-16T17:24:44.456Z,63.53
2017-11-16T17:27:10.797Z,63.54
2017-11-16T17:29:37.054Z,63.61
2017-11-16T17:32:03.383Z,63.67
2017-11-16T17:34:29.820Z,63.52
2017-11-16T17:36:56.116Z,63.60
2017-11-16T17:39:22.447Z,63.51
2017-11-16T17:41:48.756Z,63.57
2017-11-16T17:44:15.858Z,63.28
2017-11-16T17:46:42.157Z,63.85
2017-11-16T17:49:08.481Z,63.51
2017-11-16T17:51:35.070Z,63.22
2017-11-16T17:54:01.385Z,63.07
2017-11-16T17:56:27.690Z,62.95
2017-11-16T17:58:53.983Z,62.95
2017-11-16T18:01:21.041Z,62.72
2017-11-16T18:03:48.097Z,63.04
2017-11-16T18:06:14.409Z,62.96
2017-11-16T18:08:41.456Z,63.26
2017-11-16T18:11:07.752Z,63.19
2017-11-16T18:13:34.040Z,63.83
2017-11-16T18:16:00.319Z,64.57
2017-11-16T18:18:26.586Z,65.14
2017-11-16T18:20:53.618Z,64.88
2017-11-16T18:23:19.881Z,64.83
2017-11-16T18:25:46.196Z,65.02
2017-11-16T18:28:13.263Z,65.15
2017-11-16T18:30:39.694Z,65.94
2017-11-16T18:33:06.005Z,66.05
2017-11-16T18:35:33.066Z,65.93
2017-11-16T18:37:59.339Z,66.17
2017-11-16T18:40:25.598Z,66.22
2017-11-16T18:45:47.657Z,66.90
2017-11-16T18:48:13.941Z,67.11
2017-11-16T18:50:40.286Z,67.14
2017-11-16T18:53:07.310Z,67.31
2017-11-16T18:55:33.656Z,67.46
2017-11-16T18:57:59.992Z,67.68
2017-11-16T19:00:26.350Z,68.34
2017-11-16T19:02:52.843Z,68.55
2017-11-16T19:05:19.278Z,68.86
2017-11-16T19:07:45.570Z,68.92
2017-11-16T19:10:12.620Z,68.98
2017-11-16T19:12:38.928Z,69.21
2017-11-16T19:15:05.281Z,69.60
2017-11-16T19:17:32.388Z,69.62
2017-11-16T19:19:58.709Z,70.38
2017-11-16T19:22:24.983Z,70.87
2017-11-16T19:24:52.032Z,71.13
2017-11-16T19:27:20.132Z,71.39
2017-11-16T19:29:46.500Z,71.58
2017-11-16T19:32:12.847Z,71.41
2017-11-16T19:34:39.193Z,71.32
2017-11-16T19:37:05.519Z,71.36
2017-11-16T19:39:31.826Z,71.15
2017-11-16T19:41:58.140Z,71.22
2017-11-16T19:44:24.571Z,71.74
2017-11-16T19:46:50.946Z,71.62
2017-11-16T19:49:17.290Z,72.22
2017-11-16T19:51:44.423Z,71.93
2017-11-16T19:54:10.728Z,71.97
2017-11-16T19:56:37.046Z,72.40
2017-11-16T19:59:03.407Z,73.00
2017-11-16T20:01:29.773Z,73.26
2017-11-16T20:03:57.134Z,73.43
2017-11-16T20:06:24.249Z,73.77
2017-11-16T20:08:50.720Z,73.98
2017-11-16T20:11:17.770Z,74.19
2017-11-16T20:13:45.001Z,74.45
2017-11-16T20:16:12.059Z,74.51
2017-11-16T20:18:40.931Z,74.49
2017-11-16T20:21:07.765Z,74.52
2017-11-16T20:23:34.669Z,74.68
2017-11-16T20:26:02.186Z,74.87
2017-11-16T20:28:29.864Z,74.48
2017-11-16T20:30:57.520Z,74.57
2017-11-16T20:33:25.097Z,74.34
2017-11-16T20:35:53.725Z,74.16
2017-11-16T20:38:21.368Z,74.24
2017-11-16T20:40:57.671Z,72.21
2017-11-16T20:46:31.191Z,71.21
2017-11-16T20:49:01.692Z,70.91
2017-11-16T20:51:34.767Z,70.18
2017-11-16T20:54:04.562Z,69.44
2017-11-16T20:56:31.722Z,69.05
2017-11-16T20:58:58.673Z,68.60
2017-11-16T21:01:25.289Z,68.07
2017-11-16T21:03:54.095Z,67.87
2017-11-16T21:06:20.928Z,67.16
2017-11-16T21:08:47.717Z,66.94
2017-11-16T21:13:48.876Z,66.66
2017-11-16T21:16:15.205Z,67.00
2017-11-16T21:18:41.942Z,67.21
2017-11-16T21:21:10.229Z,67.19
2017-11-16T21:23:39.128Z,67.03
2017-11-16T21:26:06.050Z,66.53
2017-11-16T21:28:33.400Z,66.42
2017-11-16T21:31:00.106Z,66.31
2017-11-16T21:33:28.190Z,66.20
2017-11-16T21:35:56.430Z,66.20
2017-11-16T21:38:24.299Z,66.08
2017-11-16T21:40:52.210Z,65.92
2017-11-16T21:43:19.240Z,65.67
2017-11-16T21:45:46.450Z,65.26
2017-11-16T21:48:17.892Z,65.20
2017-11-16T21:50:44.574Z,65.50
2017-11-16T21:55:45.483Z,66.00
2017-11-16T22:01:21.830Z,66.85
2017-11-16T22:03:48.165Z,66.87
2017-11-16T22:06:14.421Z,66.74
2017-11-16T22:11:23.837Z,66.66
2017-11-16T22:13:50.817Z,66.87
2017-11-16T22:16:17.513Z,66.57
2017-11-16T22:18:44.885Z,66.55
2017-11-16T22:21:11.514Z,66.25
2017-11-16T22:23:38.682Z,65.84
2017-11-16T22:26:05.788Z,66.09
2017-11-16T22:28:32.933Z,66.28
2017-11-16T22:30:59.904Z,65.56
2017-11-16T22:33:27.526Z,65.83
2017-11-16T22:35:54.515Z,65.95
2017-11-16T22:38:22.129Z,65.65
2017-11-16T22:40:50.417Z,66.29
2017-11-16T22:43:17.504Z,65.77
2017-11-16T22:45:44.068Z,65.48
2017-11-16T22:48:11.248Z,66.10
2017-11-16T22:50:38.287Z,66.59
2017-11-16T22:53:04.562Z,67.30
2017-11-16T22:55:30.891Z,66.66
2017-11-16T22:57:58.654Z,66.43
2017-11-16T23:00:26.331Z,67.24
2017-11-16T23:02:53.383Z,67.87
2017-11-16T23:05:20.868Z,67.41
2017-11-16T23:07:51.193Z,67.12
2017-11-16T23:10:18.065Z,67.92
2017-11-16T23:12:46.217Z,68.02
2017-11-16T23:15:13.297Z,67.63
2017-11-16T23:17:40.996Z,68.03
2017-11-16T23:20:08.768Z,68.16
2017-11-16T23:22:36.615Z,68.72
2017-11-16T23:25:02.883Z,68.57
2017-11-16T23:27:29.181Z,68.30
2017-11-16T23:29:56.191Z,68.09
2017-11-16T23:32:22.511Z,68.63
2017-11-16T23:34:48.770Z,68.94
2017-11-16T23:37:15.809Z,68.07
2017-11-16T23:39:42.144Z,68.08
2017-11-16T23:42:08.409Z,68.07
2017-11-16T23:44:34.716Z,68.58
2017-11-16T23:47:01.022Z,68.92
2017-11-16T23:49:27.341Z,69.45
2017-11-16T23:51:53.672Z,69.94
2017-11-16T23:54:19.955Z,70.30
2017-11-16T23:56:46.268Z,70.63
2017-11-16T23:59:12.554Z,70.81
